sensor_id;sensor_type;location;lat;lon;timestamp;pressure;altitude;pressure_sealevel;temperature;humidity
58385;BME280;44185;47.844;8.966;2024-01-15T00:02:06;61741.34;;;-1.44;100.00
58385;BME280;44185;47.844;8.966;2024-01-15T00:04:36;61740.78;;;-1.44;100.00
58385;BME280;44185;47.844;8.966;2024-01-15T00:07:01;61735.28;;;-1.50;100.00
58385;BME280;44185;47.844;8.966;2024-01-15T00:09:27;61731.97;;;-1.53;100.00
58385;BME280;44185;47.844;8.966;2024-01-15T00:11:54;61733.09;;;-1.52;100.00
58385;BME280;44185;47.844;8.966;2024-01-15T00:14:19;61727.03;;;-1.58;100.00
58385;BME280;44185;47.844;8.966;2024-01-15T00:16:45;61720.97;;;-1.63;100.00
58385;BME280;44185;47.844;8.966;2024-01-15T00:19:10;61716.56;;;-1.68;100.00
58385;BME280;44185;47.844;8.966;2024-01-15T00:21:35;61710.50;;;-1.73;100.00
58385;BME280;44185;47.844;8.966;2024-01-15T00:24:01;61698.94;;;-1.84;100.00
58385;BME280;44185;47.844;8.966;2024-01-15T00:26:26;61694.00;;;-1.89;100.00
58385;BME280;44185;47.844;8.966;2024-01-15T00:28:53;61683.00;;;-1.99;100.00
58385;BME280;44185;47.844;8.966;2024-01-15T00:31:19;61678.03;;;-2.04;100.00
58385;BME280;44185;47.844;8.966;2024-01-15T00:33:44;61668.69;;;-2.13;100.00
58385;BME280;44185;47.844;8.966;2024-01-15T00:36:10;61656.59;;;-2.25;100.00
58385;BME280;44185;47.844;8.966;2024-01-15T00:38:35;61642.28;;;-2.38;100.00
58385;BME280;44185;47.844;8.966;2024-01-15T00:41:01;61636.78;;;-2.43;100.00
58385;BME280;44185;47.844;8.966;2024-01-15T00:43:26;61637.91;;;-2.42;100.00
58385;BME280;44185;47.844;8.966;2024-01-15T00:45:53;61639.53;;;-2.41;100.00
58385;BME280;44185;47.844;8.966;2024-01-15T00:48:18;61627.97;;;-2.52;100.00
58385;BME280;44185;47.844;8.966;2024-01-15T00:50:44;61622.47;;;-2.57;100.00
58385;BME280;44185;47.844;8.966;2024-01-15T00:53:09;61623.59;;;-2.56;100.00
58385;BME280;44185;47.844;8.966;2024-01-15T00:55:35;61625.78;;;-2.54;100.00
58385;BME280;44185;47.844;8.966;2024-01-15T00:58:00;61627.44;;;-2.52;100.00
58385;BME280;44185;47.844;8.966;2024-01-15T01:00:26;61626.34;;;-2.53;100.00
58385;BME280;44185;47.844;8.966;2024-01-15T01:02:53;61622.47;;;-2.57;100.00
58385;BME280;44185;47.844;8.966;2024-01-15T01:05:18;61598.84;;;-2.80;100.00
58385;BME280;44185;47.844;8.966;2024-01-15T01:07:43;61602.16;;;-2.76;100.00
58385;BME280;44185;47.844;8.966;2024-01-15T01:10:09;61616.44;;;-2.63;100.00
58385;BME280;44185;47.844;8.966;2024-01-15T01:12:34;61618.09;;;-2.61;100.00
58385;BME280;44185;47.844;8.966;2024-01-15T01:15:00;61617.00;;;-2.62;100.00
58385;BME280;44185;47.844;8.966;2024-01-15T01:17:25;61617.00;;;-2.62;100.00
58385;BME280;44185;47.844;8.966;2024-01-15T01:19:52;61619.75;;;-2.60;100.00
58385;BME280;44185;47.844;8.966;2024-01-15T01:22:18;61618.09;;;-2.61;100.00
58385;BME280;44185;47.844;8.966;2024-01-15T01:24:43;61609.28;;;-2.70;100.00
58385;BME280;44185;47.844;8.966;2024-01-15T01:27:09;61606.00;;;-2.73;100.00
58385;BME280;44185;47.844;8.966;2024-01-15T01:29:35;61604.34;;;-2.74;100.00
58385;BME280;44185;47.844;8.966;2024-01-15T01:32:00;61598.84;;;-2.80;100.00
58385;BME280;44185;47.844;8.966;2024-01-15T01:34:25;61594.44;;;-2.84;100.00
58385;BME280;44185;47.844;8.966;2024-01-15T01:36:52;61594.44;;;-2.84;100.00
58385;BME280;44185;47.844;8.966;2024-01-15T01:39:18;61592.81;;;-2.85;100.00
58385;BME280;44185;47.844;8.966;2024-01-15T01:41:43;61596.09;;;-2.82;100.00
58385;BME280;44185;47.844;8.966;2024-01-15T01:44:09;61601.59;;;-2.77;100.00
58385;BME280;44185;47.844;8.966;2024-01-15T01:46:36;61607.09;;;-2.72;100.00
58385;BME280;44185;47.844;8.966;2024-01-15T01:49:01;61584.56;;;-2.93;100.00
58385;BME280;44185;47.844;8.966;2024-01-15T01:51:27;61584.00;;;-2.94;100.00
58385;BME280;44185;47.844;8.966;2024-01-15T01:53:54;61587.31;;;-2.91;100.00
58385;BME280;44185;47.844;8.966;2024-01-15T01:56:20;61587.31;;;-2.91;100.00
58385;BME280;44185;47.844;8.966;2024-01-15T01:58:47;61595.00;;;-2.83;100.00
58385;BME280;44185;47.844;8.966;2024-01-15T02:01:12;61586.75;;;-2.91;100.00
58385;BME280;44185;47.844;8.966;2024-01-15T02:03:39;61582.91;;;-2.95;100.00
58385;BME280;44185;47.844;8.966;2024-01-15T02:06:05;61594.44;;;-2.84;100.00
58385;BME280;44185;47.844;8.966;2024-01-15T02:08:31;61595.00;;;-2.83;100.00
58385;BME280;44185;47.844;8.966;2024-01-15T02:10:58;61597.75;;;-2.81;100.00
58385;BME280;44185;47.844;8.966;2024-01-15T02:13:23;61602.16;;;-2.76;100.00
58385;BME280;44185;47.844;8.966;2024-01-15T02:15:49;61606.00;;;-2.73;100.00
58385;BME280;44185;47.844;8.966;2024-01-15T02:18:14;61603.25;;;-2.75;100.00
58385;BME280;44185;47.844;8.966;2024-01-15T02:20:40;61601.06;;;-2.77;100.00
58385;BME280;44185;47.844;8.966;2024-01-15T02:23:09;61602.16;;;-2.76;100.00
58385;BME280;44185;47.844;8.966;2024-01-15T02:25:35;61606.53;;;-2.72;100.00
58385;BME280;44185;47.844;8.966;2024-01-15T02:28:01;61598.31;;;-2.80;100.00
58385;BME280;44185;47.844;8.966;2024-01-15T02:30:27;61595.00;;;-2.83;100.00
58385;BME280;44185;47.844;8.966;2024-01-15T02:32:53;61593.34;;;-2.85;100.00
58385;BME280;44185;47.844;8.966;2024-01-15T02:35:19;61587.31;;;-2.91;100.00
58385;BME280;44185;47.844;8.966;2024-01-15T02:37:44;61587.88;;;-2.90;100.00
58385;BME280;44185;47.844;8.966;2024-01-15T02:40:11;61579.63;;;-2.98;100.00
58385;BME280;44185;47.844;8.966;2024-01-15T02:42:37;61566.97;;;-3.10;100.00
58385;BME280;44185;47.844;8.966;2024-01-15T02:45:03;61558.72;;;-3.18;100.00
58385;BME280;44185;47.844;8.966;2024-01-15T02:47:29;61557.09;;;-3.19;100.00
58385;BME280;44185;47.844;8.966;2024-01-15T02:49:54;61554.34;;;-3.22;100.00
58385;BME280;44185;47.844;8.966;2024-01-15T02:52:20;61556.53;;;-3.20;100.00
58385;BME280;44185;47.844;8.966;2024-01-15T02:54:45;61541.16;;;-3.35;100.00
58385;BME280;44185;47.844;8.966;2024-01-15T02:57:12;61540.59;;;-3.35;100.00
58385;BME280;44185;47.844;8.966;2024-01-15T02:59:38;61542.25;;;-3.33;100.00
58385;BME280;44185;47.844;8.966;2024-01-15T03:02:03;61543.91;;;-3.32;100.00
58385;BME280;44185;47.844;8.966;2024-01-15T03:04:29;61534.00;;;-3.41;100.00
58385;BME280;44185;47.844;8.966;2024-01-15T03:06:54;61521.91;;;-3.53;100.00
58385;BME280;44185;47.844;8.966;2024-01-15T03:09:20;61504.34;;;-3.70;100.00
58385;BME280;44185;47.844;8.966;2024-01-15T03:11:45;61501.59;;;-3.72;100.00
58385;BME280;44185;47.844;8.966;2024-01-15T03:14:12;61502.69;;;-3.71;100.00
58385;BME280;44185;47.844;8.966;2024-01-15T03:16:37;61486.22;;;-3.87;100.00
58385;BME280;44185;47.844;8.966;2024-01-15T03:19:03;61473.03;;;-3.99;100.00
58385;BME280;44185;47.844;8.966;2024-01-15T03:21:28;61462.63;;;-4.09;100.00
58385;BME280;44185;47.844;8.966;2024-01-15T03:23:54;61462.06;;;-4.10;100.00
58385;BME280;44185;47.844;8.966;2024-01-15T03:26:19;61460.97;;;-4.11;100.00
58385;BME280;44185;47.844;8.966;2024-01-15T03:28:44;61470.84;;;-4.02;100.00
58385;BME280;44185;47.844;8.966;2024-01-15T03:31:11;61474.16;;;-3.98;100.00
58385;BME280;44185;47.844;8.966;2024-01-15T03:33:37;61480.16;;;-3.93;100.00
58385;BME280;44185;47.844;8.966;2024-01-15T03:36:02;61473.03;;;-3.99;100.00
58385;BME280;44185;47.844;8.966;2024-01-15T03:38:28;61473.03;;;-3.99;100.00
58385;BME280;44185;47.844;8.966;2024-01-15T03:40:54;61450.53;;;-4.21;100.00
58385;BME280;44185;47.844;8.966;2024-01-15T03:43:19;61433.50;;;-4.37;100.00
58385;BME280;44185;47.844;8.966;2024-01-15T03:45:45;61425.28;;;-4.45;100.00
58385;BME280;44185;47.844;8.966;2024-01-15T03:48:11;61401.69;;;-4.67;100.00
58385;BME280;44185;47.844;8.966;2024-01-15T03:50:37;61391.25;;;-4.77;100.00
58385;BME280;44185;47.844;8.966;2024-01-15T03:53:03;61401.16;;;-4.68;100.00
58385;BME280;44185;47.844;8.966;2024-01-15T03:55:28;61409.94;;;-4.60;100.00
58385;BME280;44185;47.844;8.966;2024-01-15T03:57:54;61390.72;;;-4.78;100.00
58385;BME280;44185;47.844;8.966;2024-01-15T04:00:19;61373.16;;;-4.95;100.00
58385;BME280;44185;47.844;8.966;2024-01-15T04:02:45;61366.56;;;-5.01;100.00
58385;BME280;44185;47.844;8.966;2024-01-15T04:05:11;61369.31;;;-4.98;100.00
58385;BME280;44185;47.844;8.966;2024-01-15T04:07:37;61371.53;;;-4.96;100.00
58385;BME280;44185;47.844;8.966;2024-01-15T04:10:03;61375.91;;;-4.92;100.00
58385;BME280;44185;47.844;8.966;2024-01-15T04:12:28;61384.13;;;-4.84;100.00
58385;BME280;44185;47.844;8.966;2024-01-15T04:14:54;61400.59;;;-4.69;100.00
58385;BME280;44185;47.844;8.966;2024-01-15T04:17:19;61418.16;;;-4.52;100.00
58385;BME280;44185;47.844;8.966;2024-01-15T04:19:45;61418.72;;;-4.51;100.00
58385;BME280;44185;47.844;8.966;2024-01-15T04:22:11;61427.47;;;-4.43;100.00
58385;BME280;44185;47.844;8.966;2024-01-15T04:24:37;61434.63;;;-4.36;100.00
58385;BME280;44185;47.844;8.966;2024-01-15T04:27:03;61444.50;;;-4.27;100.00
58385;BME280;44185;47.844;8.966;2024-01-15T04:29:28;61454.38;;;-4.17;100.00
58385;BME280;44185;47.844;8.966;2024-01-15T04:31:54;61443.41;;;-4.28;100.00
58385;BME280;44185;47.844;8.966;2024-01-15T04:34:19;61442.28;;;-4.29;100.00
58385;BME280;44185;47.844;8.966;2024-01-15T04:36:45;61441.19;;;-4.30;100.00
58385;BME280;44185;47.844;8.966;2024-01-15T04:39:11;61434.63;;;-4.36;100.00
58385;BME280;44185;47.844;8.966;2024-01-15T04:41:37;61444.50;;;-4.27;100.00
58385;BME280;44185;47.844;8.966;2024-01-15T04:44:03;61447.78;;;-4.24;100.00
58385;BME280;44185;47.844;8.966;2024-01-15T04:46:28;61459.31;;;-4.13;100.00
58385;BME280;44185;47.844;8.966;2024-01-15T04:48:54;61443.94;;;-4.27;100.00
58385;BME280;44185;47.844;8.966;2024-01-15T04:51:19;61434.63;;;-4.36;100.00
58385;BME280;44185;47.844;8.966;2024-01-15T04:53:44;61446.69;;;-4.25;100.00
58385;BME280;44185;47.844;8.966;2024-01-15T04:56:11;61456.03;;;-4.16;100.00
58385;BME280;44185;47.844;8.966;2024-01-15T04:58:37;61470.28;;;-4.02;100.00
58385;BME280;44185;47.844;8.966;2024-01-15T05:01:02;61470.84;;;-4.02;100.00
58385;BME280;44185;47.844;8.966;2024-01-15T05:03:28;61474.16;;;-3.98;100.00
58385;BME280;44185;47.844;8.966;2024-01-15T05:05:54;61470.84;;;-4.02;100.00
58385;BME280;44185;47.844;8.966;2024-01-15T05:08:20;61479.09;;;-3.94;100.00
58385;BME280;44185;47.844;8.966;2024-01-15T05:10:45;61477.97;;;-3.95;100.00
58385;BME280;44185;47.844;8.966;2024-01-15T05:13:12;61480.16;;;-3.93;100.00
58385;BME280;44185;47.844;8.966;2024-01-15T05:15:38;61482.91;;;-3.90;100.00
58385;BME280;44185;47.844;8.966;2024-01-15T05:18:03;61490.06;;;-3.83;100.00
58385;BME280;44185;47.844;8.966;2024-01-15T05:20:29;61496.09;;;-3.77;100.00
58385;BME280;44185;47.844;8.966;2024-01-15T05:22:54;61499.41;;;-3.74;100.00
58385;BME280;44185;47.844;8.966;2024-01-15T05:25:20;61498.31;;;-3.75;100.00
58385;BME280;44185;47.844;8.966;2024-01-15T05:27:45;61510.94;;;-3.63;100.00
58385;BME280;44185;47.844;8.966;2024-01-15T05:30:13;61515.34;;;-3.59;100.00
58385;BME280;44185;47.844;8.966;2024-01-15T05:32:38;61513.66;;;-3.61;100.00
58385;BME280;44185;47.844;8.966;2024-01-15T05:35:04;61511.47;;;-3.63;100.00
58385;BME280;44185;47.844;8.966;2024-01-15T05:37:30;61511.47;;;-3.63;100.00
58385;BME280;44185;47.844;8.966;2024-01-15T05:39:55;61509.84;;;-3.64;100.00
58385;BME280;44185;47.844;8.966;2024-01-15T05:42:21;61519.16;;;-3.55;100.00
58385;BME280;44185;47.844;8.966;2024-01-15T05:44:47;61517.53;;;-3.57;100.00
58385;BME280;44185;47.844;8.966;2024-01-15T05:47:13;61513.66;;;-3.61;100.00
58385;BME280;44185;47.844;8.966;2024-01-15T05:49:39;61517.53;;;-3.57;100.00
58385;BME280;44185;47.844;8.966;2024-01-15T05:52:04;61520.28;;;-3.54;100.00
58385;BME280;44185;47.844;8.966;2024-01-15T05:54:30;61515.88;;;-3.59;100.00
58385;BME280;44185;47.844;8.966;2024-01-15T05:56:55;61525.75;;;-3.49;100.00
58385;BME280;44185;47.844;8.966;2024-01-15T05:59:21;61530.69;;;-3.44;100.00
58385;BME280;44185;47.844;8.966;2024-01-15T06:01:47;61537.31;;;-3.38;100.00
58385;BME280;44185;47.844;8.966;2024-01-15T06:04:14;61530.16;;;-3.45;100.00
58385;BME280;44185;47.844;8.966;2024-01-15T06:06:39;61534.00;;;-3.41;100.00
58385;BME280;44185;47.844;8.966;2024-01-15T06:09:05;61542.25;;;-3.33;100.00
58385;BME280;44185;47.844;8.966;2024-01-15T06:11:30;61541.69;;;-3.34;100.00
58385;BME280;44185;47.844;8.966;2024-01-15T06:13:55;61536.19;;;-3.39;100.00
58385;BME280;44185;47.844;8.966;2024-01-15T06:16:21;61546.66;;;-3.29;100.00
58385;BME280;44185;47.844;8.966;2024-01-15T06:18:47;61559.28;;;-3.17;100.00
58385;BME280;44185;47.844;8.966;2024-01-15T06:21:13;61572.47;;;-3.05;100.00
58385;BME280;44185;47.844;8.966;2024-01-15T06:23:39;61590.06;;;-2.88;100.00
58385;BME280;44185;47.844;8.966;2024-01-15T06:26:05;61600.50;;;-2.78;100.00
58385;BME280;44185;47.844;8.966;2024-01-15T06:28:30;61609.28;;;-2.70;100.00
58385;BME280;44185;47.844;8.966;2024-01-15T06:30:56;61612.03;;;-2.67;100.00
58385;BME280;44185;47.844;8.966;2024-01-15T06:33:22;61608.19;;;-2.71;100.00
58385;BME280;44185;47.844;8.966;2024-01-15T06:35:47;61612.03;;;-2.67;100.00
58385;BME280;44185;47.844;8.966;2024-01-15T06:38:14;61607.66;;;-2.71;100.00
58385;BME280;44185;47.844;8.966;2024-01-15T06:40:39;61596.09;;;-2.82;100.00
58385;BME280;44185;47.844;8.966;2024-01-15T06:43:05;61587.31;;;-2.91;100.00
58385;BME280;44185;47.844;8.966;2024-01-15T06:45:30;61588.41;;;-2.89;100.00
58385;BME280;44185;47.844;8.966;2024-01-15T06:47:56;61602.69;;;-2.76;100.00
58385;BME280;44185;47.844;8.966;2024-01-15T06:50:21;61598.31;;;-2.80;100.00
58385;BME280;44185;47.844;8.966;2024-01-15T06:52:47;61594.44;;;-2.84;100.00
58385;BME280;44185;47.844;8.966;2024-01-15T06:55:13;61598.84;;;-2.80;100.00
58385;BME280;44185;47.844;8.966;2024-01-15T06:57:39;61599.94;;;-2.79;100.00
58385;BME280;44185;47.844;8.966;2024-01-15T07:00:06;61603.25;;;-2.75;100.00
58385;BME280;44185;47.844;8.966;2024-01-15T07:02:31;61599.94;;;-2.79;100.00
58385;BME280;44185;47.844;8.966;2024-01-15T07:04:57;61597.75;;;-2.81;100.00
58385;BME280;44185;47.844;8.966;2024-01-15T07:07:22;61600.50;;;-2.78;100.00
58385;BME280;44185;47.844;8.966;2024-01-15T07:09:48;61603.25;;;-2.75;100.00
58385;BME280;44185;47.844;8.966;2024-01-15T07:12:14;61603.81;;;-2.75;100.00
58385;BME280;44185;47.844;8.966;2024-01-15T07:14:40;61607.09;;;-2.72;100.00
58385;BME280;44185;47.844;8.966;2024-01-15T07:17:05;61606.00;;;-2.73;100.00
58385;BME280;44185;47.844;8.966;2024-01-15T07:19:31;61609.28;;;-2.70;100.00
58385;BME280;44185;47.844;8.966;2024-01-15T07:21:56;61608.75;;;-2.70;100.00
58385;BME280;44185;47.844;8.966;2024-01-15T07:24:22;61617.53;;;-2.62;100.00
58385;BME280;44185;47.844;8.966;2024-01-15T07:26:47;61616.44;;;-2.63;100.00
58385;BME280;44185;47.844;8.966;2024-01-15T07:29:14;61624.16;;;-2.55;100.00
58385;BME280;44185;47.844;8.966;2024-01-15T07:31:39;61627.97;;;-2.52;100.00
58385;BME280;44185;47.844;8.966;2024-01-15T07:34:05;61634.03;;;-2.46;100.00
58385;BME280;44185;47.844;8.966;2024-01-15T07:36:30;61627.97;;;-2.52;100.00
58385;BME280;44185;47.844;8.966;2024-01-15T07:38:56;61632.94;;;-2.47;100.00
58385;BME280;44185;47.844;8.966;2024-01-15T07:41:21;61635.16;;;-2.45;100.00
58385;BME280;44185;47.844;8.966;2024-01-15T07:43:47;61639.53;;;-2.41;100.00
58385;BME280;44185;47.844;8.966;2024-01-15T07:46:14;61645.59;;;-2.35;100.00
58385;BME280;44185;47.844;8.966;2024-01-15T07:48:39;61645.03;;;-2.36;100.00
58385;BME280;44185;47.844;8.966;2024-01-15T07:51:04;61649.44;;;-2.31;100.00
58385;BME280;44185;47.844;8.966;2024-01-15T07:53:30;61653.84;;;-2.27;100.00
58385;BME280;44185;47.844;8.966;2024-01-15T07:55:55;61657.13;;;-2.24;100.00
58385;BME280;44185;47.844;8.966;2024-01-15T07:58:21;61657.13;;;-2.24;100.00
58385;BME280;44185;47.844;8.966;2024-01-15T08:00:47;61662.09;;;-2.19;100.00
58385;BME280;44185;47.844;8.966;2024-01-15T08:03:14;61659.88;;;-2.21;100.00
58385;BME280;44185;47.844;8.966;2024-01-15T08:05:39;61659.88;;;-2.21;100.00
58385;BME280;44185;47.844;8.966;2024-01-15T08:08:05;61661.00;;;-2.20;100.00
58385;BME280;44185;47.844;8.966;2024-01-15T08:10:30;61664.84;;;-2.17;100.00
58385;BME280;44185;47.844;8.966;2024-01-15T08:12:56;61669.78;;;-2.12;100.00
58385;BME280;44185;47.844;8.966;2024-01-15T08:15:21;61670.91;;;-2.11;100.00
58385;BME280;44185;47.844;8.966;2024-01-15T08:17:47;61675.28;;;-2.07;100.00
58385;BME280;44185;47.844;8.966;2024-01-15T08:20:14;61679.69;;;-2.03;100.00
58385;BME280;44185;47.844;8.966;2024-01-15T08:22:39;61682.44;;;-2.00;100.00
58385;BME280;44185;47.844;8.966;2024-01-15T08:25:05;61689.03;;;-1.94;100.00
58385;BME280;44185;47.844;8.966;2024-01-15T08:27:30;61688.50;;;-1.94;100.00
58385;BME280;44185;47.844;8.966;2024-01-15T08:29:56;61690.69;;;-1.92;100.00
58385;BME280;44185;47.844;8.966;2024-01-15T08:32:21;61694.56;;;-1.88;100.00
58385;BME280;44185;47.844;8.966;2024-01-15T08:34:47;61700.06;;;-1.83;100.00
58385;BME280;44185;47.844;8.966;2024-01-15T08:37:14;61709.97;;;-1.74;100.00
58385;BME280;44185;47.844;8.966;2024-01-15T08:39:39;61707.75;;;-1.76;100.00
58385;BME280;44185;47.844;8.966;2024-01-15T08:42:05;61708.31;;;-1.75;100.00
58385;BME280;44185;47.844;8.966;2024-01-15T08:44:30;61706.09;;;-1.77;100.00
58385;BME280;44185;47.844;8.966;2024-01-15T08:46:56;61709.97;;;-1.74;100.00
58385;BME280;44185;47.844;8.966;2024-01-15T08:49:21;61710.50;;;-1.73;100.00
58385;BME280;44185;47.844;8.966;2024-01-15T08:51:47;61711.06;;;-1.73;100.00
58385;BME280;44185;47.844;8.966;2024-01-15T08:54:14;61721.53;;;-1.63;100.00
58385;BME280;44185;47.844;8.966;2024-01-15T08:56:39;61723.16;;;-1.61;100.00
58385;BME280;44185;47.844;8.966;2024-01-15T08:59:04;61720.41;;;-1.64;100.00
58385;BME280;44185;47.844;8.966;2024-01-15T09:01:30;61729.22;;;-1.55;100.00
58385;BME280;44185;47.844;8.966;2024-01-15T09:03:55;61729.22;;;-1.55;100.00
58385;BME280;44185;47.844;8.966;2024-01-15T09:06:21;61746.28;;;-1.39;100.00
58385;BME280;44185;47.844;8.966;2024-01-15T09:08:47;61744.66;;;-1.41;100.00
58385;BME280;44185;47.844;8.966;2024-01-15T09:11:13;61728.66;;;-1.56;100.00
58385;BME280;44185;47.844;8.966;2024-01-15T09:13:39;61730.31;;;-1.54;99.06
58385;BME280;44185;47.844;8.966;2024-01-15T09:16:04;61733.63;;;-1.51;98.62
58385;BME280;44185;47.844;8.966;2024-01-15T09:18:30;61725.91;;;-1.59;98.15
58385;BME280;44185;47.844;8.966;2024-01-15T09:20:55;61718.22;;;-1.66;99.18
58385;BME280;44185;47.844;8.966;2024-01-15T09:23:21;61730.31;;;-1.54;99.63
58385;BME280;44185;47.844;8.966;2024-01-15T09:25:47;61738.59;;;-1.47;100.00
58385;BME280;44185;47.844;8.966;2024-01-15T09:28:14;61743.53;;;-1.42;100.00
58385;BME280;44185;47.844;8.966;2024-01-15T09:30:39;61738.03;;;-1.47;99.54
58385;BME280;44185;47.844;8.966;2024-01-15T09:33:04;61733.09;;;-1.52;98.77
58385;BME280;44185;47.844;8.966;2024-01-15T09:35:30;61747.41;;;-1.38;98.75
58385;BME280;44185;47.844;8.966;2024-01-15T09:37:55;61751.25;;;-1.35;97.21
58385;BME280;44185;47.844;8.966;2024-01-15T09:40:21;61769.41;;;-1.17;94.88
58385;BME280;44185;47.844;8.966;2024-01-15T09:42:47;61785.94;;;-1.02;95.06
58385;BME280;44185;47.844;8.966;2024-01-15T09:45:14;61794.19;;;-0.94;92.94
58385;BME280;44185;47.844;8.966;2024-01-15T09:47:40;61809.59;;;-0.79;93.95
58385;BME280;44185;47.844;8.966;2024-01-15T09:50:07;61815.69;;;-0.73;94.25
58385;BME280;44185;47.844;8.966;2024-01-15T09:52:34;61832.19;;;-0.58;93.32
58385;BME280;44185;47.844;8.966;2024-01-15T09:55:01;61841.03;;;-0.49;91.67
58385;BME280;44185;47.844;8.966;2024-01-15T09:57:26;61837.16;;;-0.53;90.70
58385;BME280;44185;47.844;8.966;2024-01-15T09:59:53;61841.03;;;-0.49;89.69
58385;BME280;44185;47.844;8.966;2024-01-15T10:02:21;61837.72;;;-0.52;87.84
58385;BME280;44185;47.844;8.966;2024-01-15T10:04:47;61853.16;;;-0.38;88.54
58385;BME280;44185;47.844;8.966;2024-01-15T10:07:15;61858.66;;;-0.32;85.45
58385;BME280;44185;47.844;8.966;2024-01-15T10:09:41;61875.75;;;-0.16;86.36
58385;BME280;44185;47.844;8.966;2024-01-15T10:12:07;61848.53;;;-0.37;85.00
58385;BME280;44185;47.844;8.966;2024-01-15T10:14:33;61851.47;;;-0.39;86.47
58385;BME280;44185;47.844;8.966;2024-01-15T10:16:58;61835.50;;;-0.54;89.52
58385;BME280;44185;47.844;8.966;2024-01-15T10:19:25;61825.59;;;-0.64;89.81
58385;BME280;44185;47.844;8.966;2024-01-15T10:21:51;61835.50;;;-0.54;90.60
58385;BME280;44185;47.844;8.966;2024-01-15T10:24:17;61839.91;;;-0.50;89.74
58385;BME280;44185;47.844;8.966;2024-01-15T10:26:42;61869.13;;;-0.23;88.25
58385;BME280;44185;47.844;8.966;2024-01-15T10:29:07;61888.97;;;-0.04;86.76
58385;BME280;44185;47.844;8.966;2024-01-15T10:31:33;61899.44;;;0.06;85.39
58385;BME280;44185;47.844;8.966;2024-01-15T10:34:13;61927.00;;;0.32;83.69
58385;BME280;44185;47.844;8.966;2024-01-15T10:36:41;61940.44;;;0.48;85.61
58385;BME280;44185;47.844;8.966;2024-01-15T10:39:06;61947.41;;;0.52;84.31
58385;BME280;44185;47.844;8.966;2024-01-15T10:41:32;61983.84;;;0.86;84.64
58385;BME280;44185;47.844;8.966;2024-01-15T10:43:57;61990.63;;;0.95;82.52
58385;BME280;44185;47.844;8.966;2024-01-15T10:46:23;62019.16;;;1.20;84.02
58385;BME280;44185;47.844;8.966;2024-01-15T10:48:49;62022.09;;;1.25;81.64
58385;BME280;44185;47.844;8.966;2024-01-15T10:51:15;61985.47;;;0.88;81.72
58385;BME280;44185;47.844;8.966;2024-01-15T10:53:42;62030.75;;;1.31;83.48
58385;BME280;44185;47.844;8.966;2024-01-15T10:56:10;62042.91;;;1.42;79.87
58385;BME280;44185;47.844;8.966;2024-01-15T10:58:36;62060.56;;;1.59;78.84
58385;BME280;44185;47.844;8.966;2024-01-15T11:01:04;62076.56;;;1.74;78.30
58385;BME280;44185;47.844;8.966;2024-01-15T11:03:30;62087.06;;;1.84;76.43
58385;BME280;44185;47.844;8.966;2024-01-15T11:05:56;62065.53;;;1.64;75.61
58385;BME280;44185;47.844;8.966;2024-01-15T11:08:21;62079.91;;;1.77;75.99
58385;BME280;44185;47.844;8.966;2024-01-15T11:10:51;62098.13;;;1.95;75.41
58385;BME280;44185;47.844;8.966;2024-01-15T11:13:20;62098.66;;;1.95;74.54
58385;BME280;44185;47.844;8.966;2024-01-15T11:15:58;62062.78;;;1.61;73.52
58385;BME280;44185;47.844;8.966;2024-01-15T11:18:23;62077.13;;;1.75;75.63
58385;BME280;44185;47.844;8.966;2024-01-15T11:21:21;62121.88;;;2.17;73.12
58385;BME280;44185;47.844;8.966;2024-01-15T11:23:48;62081.34;;;1.84;74.34
58385;BME280;44185;47.844;8.966;2024-01-15T11:26:32;62140.66;;;2.35;74.29
58385;BME280;44185;47.844;8.966;2024-01-15T11:28:59;62162.38;;;2.58;72.94
58385;BME280;44185;47.844;8.966;2024-01-15T11:31:27;62134.75;;;2.32;72.30
58385;BME280;44185;47.844;8.966;2024-01-15T11:33:52;62099.78;;;1.96;75.16
58385;BME280;44185;47.844;8.966;2024-01-15T11:36:18;62110.81;;;2.07;75.30
58385;BME280;44185;47.844;8.966;2024-01-15T11:38:43;62124.09;;;2.19;73.21
58385;BME280;44185;47.844;8.966;2024-01-15T11:41:13;62134.91;;;2.35;74.02
58385;BME280;44185;47.844;8.966;2024-01-15T11:43:41;62085.03;;;1.85;72.79
58385;BME280;44185;47.844;8.966;2024-01-15T11:46:11;62083.19;;;1.81;74.20
58385;BME280;44185;47.844;8.966;2024-01-15T11:48:42;62077.13;;;1.75;74.32
58385;BME280;44185;47.844;8.966;2024-01-15T11:51:10;62098.84;;;1.98;74.87
58385;BME280;44185;47.844;8.966;2024-01-15T11:53:44;62080.06;;;1.80;75.80
58385;BME280;44185;47.844;8.966;2024-01-15T11:56:14;62060.34;;;1.64;74.22
58385;BME280;44185;47.844;8.966;2024-01-15T11:58:42;62061.28;;;1.62;74.75
58385;BME280;44185;47.844;8.966;2024-01-15T12:01:08;62073.25;;;1.71;75.49
58385;BME280;44185;47.844;8.966;2024-01-15T12:03:33;62081.00;;;1.78;75.83
58385;BME280;44185;47.844;8.966;2024-01-15T12:05:58;62097.56;;;1.94;74.97
58385;BME280;44185;47.844;8.966;2024-01-15T12:08:24;62066.09;;;1.64;75.61
58385;BME280;44185;47.844;8.966;2024-01-15T12:10:49;62048.59;;;1.50;74.89
58385;BME280;44185;47.844;8.966;2024-01-15T12:13:15;62050.63;;;1.50;75.79
58385;BME280;44185;47.844;8.966;2024-01-15T12:15:43;62069.94;;;1.68;76.38
58385;BME280;44185;47.844;8.966;2024-01-15T12:18:11;62071.22;;;1.72;74.90
58385;BME280;44185;47.844;8.966;2024-01-15T12:20:37;62086.50;;;1.84;74.96
58385;BME280;44185;47.844;8.966;2024-01-15T12:23:03;62071.63;;;1.70;75.31
58385;BME280;44185;47.844;8.966;2024-01-15T12:25:30;62060.34;;;1.64;75.57
58385;BME280;44185;47.844;8.966;2024-01-15T12:27:56;62064.97;;;1.63;76.29
58385;BME280;44185;47.844;8.966;2024-01-15T12:30:22;62054.66;;;1.56;76.89
58385;BME280;44185;47.844;8.966;2024-01-15T12:32:49;62053.00;;;1.54;74.92
58385;BME280;44185;47.844;8.966;2024-01-15T12:35:15;62047.09;;;1.51;72.99
58385;BME280;44185;47.844;8.966;2024-01-15T12:37:40;62050.63;;;1.50;70.71
58385;BME280;44185;47.844;8.966;2024-01-15T12:40:07;62057.81;;;1.57;71.20
58385;BME280;44185;47.844;8.966;2024-01-15T12:42:33;62057.81;;;1.57;71.40
58385;BME280;44185;47.844;8.966;2024-01-15T12:44:59;62049.16;;;1.51;71.64
58385;BME280;44185;47.844;8.966;2024-01-15T12:47:25;62055.22;;;1.57;71.51
58385;BME280;44185;47.844;8.966;2024-01-15T12:49:52;62060.00;;;1.59;72.59